Astrakhan Airport
URWA : now visible

Airfield :











YOU CAN JOIN US ON...

 
LOGIN :

Register | Disclaimer

   EN    FR    IT 

 









Legend :    VFR   Marginal VFR   IFR   Intensive IFR   Very Intensive IFR
Visi :
Ceiling :
>= 8 km
>= 3000ft
5 to 8 km
1000 to 3000 ft
1500m to 5 km
500 to 1000 ft
800 to 1500m
200 to 500 ft
< 800m
< 200 ft
Symbols :   Thunderstorms  Fog  Heavy snow  Heavy precipitations  Wind > 20 kt






- Airport Elevation : -65 ft
- IATA code : ASF


URWA - Astrakhan

CURRENT METAR :
  • 241800Z 10003MPS CAVOK 04/M01 Q1007 R09/010070 NOSIG RMK QFE757/1009

EXPIRED METARs :
  • 241730Z 12004MPS CAVOK 04/M00 Q1007 R09/010070 NOSIG RMK QFE757/1010
  • 241700Z 11005MPS CAVOK 04/M01 Q1008 R09/010070 NOSIG RMK QFE758/1010
  • 241630Z 13002MPS CAVOK 04/M01 Q1008 R09/010070 NOSIG RMK QFE758/1011
  • 241600Z 14002MPS CAVOK 04/M01 Q1009 R09/010070 NOSIG RMK QFE758/1011
  • 241530Z 17003MPS CAVOK 05/M01 Q1009 R09/010070 NOSIG RMK QFE759/1012

TAF TAF URWA
Valid from the 24 at 18:00 until the 25 at 03:00 UTC


241700Z 2418/2503 11005G10MPS 6000 BKN015 OVC020
TEMPO 2418/2503 14003G08MPS 3100 BR OVC011



MET'MAP, your aeronautical weather chart ! - Copyright ORBIFLY December 2007 - Disclaimer

ORBIFLY MET'MAP TEAM :

Programming & Development : Alexandra Zaïnal
Concept & original design : Baudouin d'Aumeries
Assistance for programming : Marc-Olivier Méhu
Technical & hardware support : Manuel Goepfert

Contact : metmap@orbifly.com




SOURCES & CREDITS :

   NOAA       Earth
Advisory